Aérodrome :
LOGIN :

S'inscrire | Disclaimer

   EN    FR    IT 

 










Légende :    VFR   VFR Marginal   IFR   IFR Intensif   IFR Très Intensif
Visi : 
Plafond : 
>= 8 km
>= 3000ft
5 à 8 km
1000 à 3000 ft
1500m à 5 km
500 à 1000 ft
800 à 1500m
200 à 500 ft
< 800m
< 200 ft
Symboles :   Orages  Brouillard  Fortes neiges  Fortes précipitations  Vent > 20 kt
SIGMETs :   Divers  Orages  Givrage  Turbulence  Onde Orograph.  Cendres Volcan.







- Altitude de l'aérodrome : 288 ft
- Code IATA : BZZ


EGVN - RAF Brize Norton

DERNIER METAR :
  • 261750Z 06013KT 9999 OVC012 16/13 Q1028 NOSIG RMK GRN GRN

METARs EXPIRÉS :
  • 261720Z 06016KT 9999 BKN013 16/13 Q1028 NOSIG RMK GRN GRN
  • 261650Z 06017KT 9999 BKN015 17/13 Q1028 NOSIG RMK WHT WHT
  • 261621Z 06014KT 9999 BKN015 17/14 Q1028 BECMG FEW018 RMK WHY BECMG BLU
  • 261550Z 05014KT 9999 BKN015 18/14 Q1028 BECMG FEW018 RMK WHT BECMG BLU
  • 261523Z 06014KT 9999 OVC014 17/13 Q1028 BECMG BKN015 RMK GRN BECMG WHT
  • 261450Z 07013KT 9999 OVC013 18/14 Q1028 BECMG BKN015 RMK GRN BECMG WHT

TAF AMD TAF EGVN
Valide du 26 à 18h jusqu'au 27 à 18h UTC


261722Z 2618/2718 05012KT 9999 BKN013
BECMG 2706/2709 CAVOK
Pas de NOTAMs connus pour ce terrain.



MET'MAP, la Météo Aéronautique d'un coup d'oeil ! - Copyright ORBIFLY Décembre 2007 - Disclaimer

ORBIFLY MET'MAP TEAM :

Programmation & Développement : Alexandra Zaïnal
Conception & Développement : Baudouin d'Aumeries
Co-Programmation & Développement : Marc-Olivier Méhu
Soutien technique & logistique : Manuel Goepfert

Contact : metmap@orbifly.com




SOURCES & CREDITS :

   NOAA